sensor_id;sensor_type;location;lat;lon;timestamp;temperature;humidity
22319;DHT22;11327;52.334;9.506;2022-10-13T00:00:43;8.70;99.90
22319;DHT22;11327;52.334;9.506;2022-10-13T00:04:04;8.70;99.90
22319;DHT22;11327;52.334;9.506;2022-10-13T00:07:26;8.80;99.90
22319;DHT22;11327;52.334;9.506;2022-10-13T00:10:49;8.80;99.90
22319;DHT22;11327;52.334;9.506;2022-10-13T00:14:10;8.80;99.90
22319;DHT22;11327;52.334;9.506;2022-10-13T00:17:32;8.90;99.90
22319;DHT22;11327;52.334;9.506;2022-10-13T00:20:52;8.90;99.90
22319;DHT22;11327;52.334;9.506;2022-10-13T00:24:13;9.00;99.90
22319;DHT22;11327;52.334;9.506;2022-10-13T00:27:34;9.00;99.90
22319;DHT22;11327;52.334;9.506;2022-10-13T00:30:55;9.10;99.90
22319;DHT22;11327;52.334;9.506;2022-10-13T00:34:16;9.10;99.90
22319;DHT22;11327;52.334;9.506;2022-10-13T00:37:37;9.20;99.90
22319;DHT22;11327;52.334;9.506;2022-10-13T00:40:58;9.10;99.90
22319;DHT22;11327;52.334;9.506;2022-10-13T00:48:18;9.20;99.90
22319;DHT22;11327;52.334;9.506;2022-10-13T00:51:46;9.20;99.90
22319;DHT22;11327;52.334;9.506;2022-10-13T00:55:06;9.20;99.90
22319;DHT22;11327;52.334;9.506;2022-10-13T00:58:29;9.30;99.90
22319;DHT22;11327;52.334;9.506;2022-10-13T01:01:51;9.30;99.90
22319;DHT22;11327;52.334;9.506;2022-10-13T01:05:14;9.30;99.90
22319;DHT22;11327;52.334;9.506;2022-10-13T01:08:35;9.40;99.90
22319;DHT22;11327;52.334;9.506;2022-10-13T01:15:45;9.50;99.90
22319;DHT22;11327;52.334;9.506;2022-10-13T01:23:05;9.60;99.90
22319;DHT22;11327;52.334;9.506;2022-10-13T01:44:15;9.60;99.90
22319;DHT22;11327;52.334;9.506;2022-10-13T01:47:37;9.60;99.90
22319;DHT22;11327;52.334;9.506;2022-10-13T01:50:58;9.60;99.90
22319;DHT22;11327;52.334;9.506;2022-10-13T01:54:20;9.60;99.90
22319;DHT22;11327;52.334;9.506;2022-10-13T01:57:43;9.60;99.90
22319;DHT22;11327;52.334;9.506;2022-10-13T02:04:57;9.70;99.90
22319;DHT22;11327;52.334;9.506;2022-10-13T02:08:23;9.60;99.90
22319;DHT22;11327;52.334;9.506;2022-10-13T02:11:49;9.60;99.90
22319;DHT22;11327;52.334;9.506;2022-10-13T02:15:12;9.70;99.90
22319;DHT22;11327;52.334;9.506;2022-10-13T02:18:34;9.70;99.90
22319;DHT22;11327;52.334;9.506;2022-10-13T02:21:56;9.80;99.90
22319;DHT22;11327;52.334;9.506;2022-10-13T02:25:18;9.70;99.90
22319;DHT22;11327;52.334;9.506;2022-10-13T02:28:39;9.70;99.90
22319;DHT22;11327;52.334;9.506;2022-10-13T02:32:00;9.70;99.90
22319;DHT22;11327;52.334;9.506;2022-10-13T02:35:21;9.80;99.90
22319;DHT22;11327;52.334;9.506;2022-10-13T02:38:42;9.80;99.90
22319;DHT22;11327;52.334;9.506;2022-10-13T02:42:03;9.70;99.90
22319;DHT22;11327;52.334;9.506;2022-10-13T02:45:24;9.70;99.90
22319;DHT22;11327;52.334;9.506;2022-10-13T02:48:45;9.70;99.90
22319;DHT22;11327;52.334;9.506;2022-10-13T02:52:07;9.70;99.90
22319;DHT22;11327;52.334;9.506;2022-10-13T02:55:28;9.70;99.90
22319;DHT22;11327;52.334;9.506;2022-10-13T02:58:49;9.70;99.90
22319;DHT22;11327;52.334;9.506;2022-10-13T03:02:10;9.70;99.90
22319;DHT22;11327;52.334;9.506;2022-10-13T03:05:31;9.70;99.90
22319;DHT22;11327;52.334;9.506;2022-10-13T03:08:52;9.70;99.90
22319;DHT22;11327;52.334;9.506;2022-10-13T03:12:13;9.70;99.90
22319;DHT22;11327;52.334;9.506;2022-10-13T03:15:34;9.70;99.90
22319;DHT22;11327;52.334;9.506;2022-10-13T03:18:55;9.80;99.90
22319;DHT22;11327;52.334;9.506;2022-10-13T03:22:16;9.80;99.90
22319;DHT22;11327;52.334;9.506;2022-10-13T03:25:37;9.80;99.90
22319;DHT22;11327;52.334;9.506;2022-10-13T03:28:58;9.80;99.90
22319;DHT22;11327;52.334;9.506;2022-10-13T03:32:19;9.70;99.90
22319;DHT22;11327;52.334;9.506;2022-10-13T03:35:40;9.70;99.90
22319;DHT22;11327;52.334;9.506;2022-10-13T03:39:01;9.70;99.90
22319;DHT22;11327;52.334;9.506;2022-10-13T03:42:23;9.70;99.90
22319;DHT22;11327;52.334;9.506;2022-10-13T03:45:44;9.70;99.90
22319;DHT22;11327;52.334;9.506;2022-10-13T03:49:04;9.70;99.90
22319;DHT22;11327;52.334;9.506;2022-10-13T03:52:25;9.60;99.90
22319;DHT22;11327;52.334;9.506;2022-10-13T03:55:53;9.50;99.90
22319;DHT22;11327;52.334;9.506;2022-10-13T03:59:12;9.50;99.90
22319;DHT22;11327;52.334;9.506;2022-10-13T04:02:33;9.50;99.90
22319;DHT22;11327;52.334;9.506;2022-10-13T04:05:54;9.50;99.90
22319;DHT22;11327;52.334;9.506;2022-10-13T04:09:15;9.50;99.90
22319;DHT22;11327;52.334;9.506;2022-10-13T04:12:35;9.50;99.90
22319;DHT22;11327;52.334;9.506;2022-10-13T04:16:02;9.50;99.90
22319;DHT22;11327;52.334;9.506;2022-10-13T04:19:24;9.50;99.90
22319;DHT22;11327;52.334;9.506;2022-10-13T04:22:45;9.50;99.90
22319;DHT22;11327;52.334;9.506;2022-10-13T04:26:06;9.50;99.90
22319;DHT22;11327;52.334;9.506;2022-10-13T04:29:27;9.50;99.90
22319;DHT22;11327;52.334;9.506;2022-10-13T04:32:48;9.50;99.90
22319;DHT22;11327;52.334;9.506;2022-10-13T04:36:10;9.50;99.90
22319;DHT22;11327;52.334;9.506;2022-10-13T04:39:32;9.50;99.90
22319;DHT22;11327;52.334;9.506;2022-10-13T04:42:53;9.50;99.90
22319;DHT22;11327;52.334;9.506;2022-10-13T04:46:16;9.50;99.90
22319;DHT22;11327;52.334;9.506;2022-10-13T04:49:38;9.50;99.90
22319;DHT22;11327;52.334;9.506;2022-10-13T04:52:59;9.60;99.90
22319;DHT22;11327;52.334;9.506;2022-10-13T04:56:20;9.60;99.90
22319;DHT22;11327;52.334;9.506;2022-10-13T04:59:41;9.60;99.90
22319;DHT22;11327;52.334;9.506;2022-10-13T05:03:02;9.60;99.90
22319;DHT22;11327;52.334;9.506;2022-10-13T05:06:28;9.60;99.90
22319;DHT22;11327;52.334;9.506;2022-10-13T05:09:51;9.60;99.90
22319;DHT22;11327;52.334;9.506;2022-10-13T05:13:12;9.70;99.90
22319;DHT22;11327;52.334;9.506;2022-10-13T05:16:33;9.70;99.90
22319;DHT22;11327;52.334;9.506;2022-10-13T05:19:54;9.70;99.90
22319;DHT22;11327;52.334;9.506;2022-10-13T05:23:15;9.70;99.90
22319;DHT22;11327;52.334;9.506;2022-10-13T05:26:36;9.70;99.90
22319;DHT22;11327;52.334;9.506;2022-10-13T05:29:57;9.70;99.90
22319;DHT22;11327;52.334;9.506;2022-10-13T05:33:18;9.70;99.90
22319;DHT22;11327;52.334;9.506;2022-10-13T05:36:39;9.70;99.90
22319;DHT22;11327;52.334;9.506;2022-10-13T05:40:00;9.70;99.90
22319;DHT22;11327;52.334;9.506;2022-10-13T05:43:20;9.70;99.90
22319;DHT22;11327;52.334;9.506;2022-10-13T05:46:42;9.70;99.90
22319;DHT22;11327;52.334;9.506;2022-10-13T05:50:04;9.70;99.90
22319;DHT22;11327;52.334;9.506;2022-10-13T05:53:31;9.80;99.90
22319;DHT22;11327;52.334;9.506;2022-10-13T06:00:27;9.80;99.90
22319;DHT22;11327;52.334;9.506;2022-10-13T06:03:50;9.90;99.90
22319;DHT22;11327;52.334;9.506;2022-10-13T06:07:12;9.90;99.90
22319;DHT22;11327;52.334;9.506;2022-10-13T06:10:35;10.00;99.90
22319;DHT22;11327;52.334;9.506;2022-10-13T06:13:56;10.00;99.90
22319;DHT22;11327;52.334;9.506;2022-10-13T06:17:17;10.00;99.90
22319;DHT22;11327;52.334;9.506;2022-10-13T06:20:38;10.10;99.90
22319;DHT22;11327;52.334;9.506;2022-10-13T06:23:59;10.10;99.90
22319;DHT22;11327;52.334;9.506;2022-10-13T06:27:20;10.10;99.90
22319;DHT22;11327;52.334;9.506;2022-10-13T06:30:41;10.10;99.90
22319;DHT22;11327;52.334;9.506;2022-10-13T06:34:04;10.10;99.90
22319;DHT22;11327;52.334;9.506;2022-10-13T06:37:25;10.10;99.90
22319;DHT22;11327;52.334;9.506;2022-10-13T06:40:46;10.20;99.90
22319;DHT22;11327;52.334;9.506;2022-10-13T06:44:08;10.20;99.90
22319;DHT22;11327;52.334;9.506;2022-10-13T06:47:29;10.30;99.90
22319;DHT22;11327;52.334;9.506;2022-10-13T06:50:50;10.30;99.90
22319;DHT22;11327;52.334;9.506;2022-10-13T06:54:11;10.40;99.90
22319;DHT22;11327;52.334;9.506;2022-10-13T06:57:32;10.40;99.90
22319;DHT22;11327;52.334;9.506;2022-10-13T07:00:54;10.50;99.90
22319;DHT22;11327;52.334;9.506;2022-10-13T07:04:15;10.50;99.90
22319;DHT22;11327;52.334;9.506;2022-10-13T07:07:36;10.50;99.90
22319;DHT22;11327;52.334;9.506;2022-10-13T07:10:57;10.60;99.90
22319;DHT22;11327;52.334;9.506;2022-10-13T07:14:18;10.60;99.90
22319;DHT22;11327;52.334;9.506;2022-10-13T07:17:39;10.70;99.90
22319;DHT22;11327;52.334;9.506;2022-10-13T07:21:00;10.90;99.90
22319;DHT22;11327;52.334;9.506;2022-10-13T07:24:22;11.10;99.90
22319;DHT22;11327;52.334;9.506;2022-10-13T07:27:43;11.20;99.90
22319;DHT22;11327;52.334;9.506;2022-10-13T07:31:13;11.40;99.90
22319;DHT22;11327;52.334;9.506;2022-10-13T07:34:34;11.50;99.90
22319;DHT22;11327;52.334;9.506;2022-10-13T07:37:55;11.60;99.90
22319;DHT22;11327;52.334;9.506;2022-10-13T07:41:16;11.80;99.90
22319;DHT22;11327;52.334;9.506;2022-10-13T07:44:37;11.90;99.90
22319;DHT22;11327;52.334;9.506;2022-10-13T07:47:58;11.90;99.90
22319;DHT22;11327;52.334;9.506;2022-10-13T07:51:20;12.00;99.90
22319;DHT22;11327;52.334;9.506;2022-10-13T07:54:41;12.10;99.90
22319;DHT22;11327;52.334;9.506;2022-10-13T07:58:02;12.10;99.90
22319;DHT22;11327;52.334;9.506;2022-10-13T08:01:23;12.20;99.90
22319;DHT22;11327;52.334;9.506;2022-10-13T08:04:44;12.30;99.90
22319;DHT22;11327;52.334;9.506;2022-10-13T08:08:05;12.40;99.90
22319;DHT22;11327;52.334;9.506;2022-10-13T08:11:26;12.50;99.90
22319;DHT22;11327;52.334;9.506;2022-10-13T08:14:49;12.60;99.90
22319;DHT22;11327;52.334;9.506;2022-10-13T08:18:11;12.60;99.90
22319;DHT22;11327;52.334;9.506;2022-10-13T08:21:32;12.70;99.90
22319;DHT22;11327;52.334;9.506;2022-10-13T08:24:53;12.70;99.90
22319;DHT22;11327;52.334;9.506;2022-10-13T08:28:18;12.70;99.90
22319;DHT22;11327;52.334;9.506;2022-10-13T08:31:40;12.80;99.90
22319;DHT22;11327;52.334;9.506;2022-10-13T08:35:01;12.80;99.90
22319;DHT22;11327;52.334;9.506;2022-10-13T08:38:22;12.80;99.90
22319;DHT22;11327;52.334;9.506;2022-10-13T08:41:43;12.80;99.90
22319;DHT22;11327;52.334;9.506;2022-10-13T08:45:05;12.70;99.90
22319;DHT22;11327;52.334;9.506;2022-10-13T08:48:32;12.70;99.90
22319;DHT22;11327;52.334;9.506;2022-10-13T08:51:56;12.70;99.90
22319;DHT22;11327;52.334;9.506;2022-10-13T08:58:53;12.80;99.90
22319;DHT22;11327;52.334;9.506;2022-10-13T09:02:28;12.80;99.90
22319;DHT22;11327;52.334;9.506;2022-10-13T09:06:14;12.90;99.90
22319;DHT22;11327;52.334;9.506;2022-10-13T09:09:15;13.00;99.90
22319;DHT22;11327;52.334;9.506;2022-10-13T09:12:37;12.90;99.90
22319;DHT22;11327;52.334;9.506;2022-10-13T09:15:57;13.00;99.90
22319;DHT22;11327;52.334;9.506;2022-10-13T09:19:28;13.10;99.90
22319;DHT22;11327;52.334;9.506;2022-10-13T09:26:26;13.20;99.90
22319;DHT22;11327;52.334;9.506;2022-10-13T09:29:47;13.20;99.90
22319;DHT22;11327;52.334;9.506;2022-10-13T09:36:33;13.20;99.90
22319;DHT22;11327;52.334;9.506;2022-10-13T09:47:15;13.40;99.90
22319;DHT22;11327;52.334;9.506;2022-10-13T09:50:34;13.50;99.90
22319;DHT22;11327;52.334;9.506;2022-10-13T09:53:55;13.50;99.90
22319;DHT22;11327;52.334;9.506;2022-10-13T09:57:51;13.50;99.90
22319;DHT22;11327;52.334;9.506;2022-10-13T10:00:48;13.60;99.90
22319;DHT22;11327;52.334;9.506;2022-10-13T10:04:16;13.60;99.90
22319;DHT22;11327;52.334;9.506;2022-10-13T10:07:38;13.70;99.90
22319;DHT22;11327;52.334;9.506;2022-10-13T10:11:02;14.00;99.90
22319;DHT22;11327;52.334;9.506;2022-10-13T10:14:35;14.10;99.90
22319;DHT22;11327;52.334;9.506;2022-10-13T10:18:00;14.30;99.90
22319;DHT22;11327;52.334;9.506;2022-10-13T10:29:18;14.50;99.90
22319;DHT22;11327;52.334;9.506;2022-10-13T10:36:21;14.60;99.90
22319;DHT22;11327;52.334;9.506;2022-10-13T10:47:36;14.90;99.90
22319;DHT22;11327;52.334;9.506;2022-10-13T10:50:56;15.00;99.90
22319;DHT22;11327;52.334;9.506;2022-10-13T10:58:14;15.10;99.90
22319;DHT22;11327;52.334;9.506;2022-10-13T11:05:11;15.20;99.90
22319;DHT22;11327;52.334;9.506;2022-10-13T11:08:40;15.20;99.90
22319;DHT22;11327;52.334;9.506;2022-10-13T11:12:02;15.20;99.90
22319;DHT22;11327;52.334;9.506;2022-10-13T11:19:03;15.30;99.90
22319;DHT22;11327;52.334;9.506;2022-10-13T11:22:29;15.30;99.90
22319;DHT22;11327;52.334;9.506;2022-10-13T11:25:50;15.40;99.90
22319;DHT22;11327;52.334;9.506;2022-10-13T11:29:16;15.50;99.90
22319;DHT22;11327;52.334;9.506;2022-10-13T11:32:42;15.60;99.90
22319;DHT22;11327;52.334;9.506;2022-10-13T11:36:30;15.60;99.90
22319;DHT22;11327;52.334;9.506;2022-10-13T11:50:42;15.60;99.90
22319;DHT22;11327;52.334;9.506;2022-10-13T11:54:11;15.90;99.90
22319;DHT22;11327;52.334;9.506;2022-10-13T11:57:31;16.10;99.90
22319;DHT22;11327;52.334;9.506;2022-10-13T12:01:01;16.20;99.90
22319;DHT22;11327;52.334;9.506;2022-10-13T12:04:26;16.20;99.90
22319;DHT22;11327;52.334;9.506;2022-10-13T12:07:48;16.10;99.90
22319;DHT22;11327;52.334;9.506;2022-10-13T12:11:22;16.10;99.90
22319;DHT22;11327;52.334;9.506;2022-10-13T12:14:39;16.20;99.90
22319;DHT22;11327;52.334;9.506;2022-10-13T12:18:24;16.30;99.90
22319;DHT22;11327;52.334;9.506;2022-10-13T12:21:54;16.30;99.90
22319;DHT22;11327;52.334;9.506;2022-10-13T12:25:18;16.30;99.90
22319;DHT22;11327;52.334;9.506;2022-10-13T12:28:53;16.40;99.90
22319;DHT22;11327;52.334;9.506;2022-10-13T12:32:20;16.40;99.90
22319;DHT22;11327;52.334;9.506;2022-10-13T12:35:41;16.40;99.90
22319;DHT22;11327;52.334;9.506;2022-10-13T12:39:09;16.40;99.90
22319;DHT22;11327;52.334;9.506;2022-10-13T12:42:31;16.40;99.90
22319;DHT22;11327;52.334;9.506;2022-10-13T12:45:52;16.40;99.90
22319;DHT22;11327;52.334;9.506;2022-10-13T12:52:38;16.40;99.90
22319;DHT22;11327;52.334;9.506;2022-10-13T12:56:00;16.40;99.90
22319;DHT22;11327;52.334;9.506;2022-10-13T12:59:25;16.50;99.90
22319;DHT22;11327;52.334;9.506;2022-10-13T13:03:04;16.50;99.90
22319;DHT22;11327;52.334;9.506;2022-10-13T13:06:31;16.50;99.90
22319;DHT22;11327;52.334;9.506;2022-10-13T13:13:23;16.50;99.90
22319;DHT22;11327;52.334;9.506;2022-10-13T13:17:09;16.50;99.90
22319;DHT22;11327;52.334;9.506;2022-10-13T13:20:30;16.40;99.90
22319;DHT22;11327;52.334;9.506;2022-10-13T13:23:51;16.30;99.90
22319;DHT22;11327;52.334;9.506;2022-10-13T13:27:26;16.30;99.90
22319;DHT22;11327;52.334;9.506;2022-10-13T13:30:47;16.30;99.90
22319;DHT22;11327;52.334;9.506;2022-10-13T13:34:08;16.30;99.90
22319;DHT22;11327;52.334;9.506;2022-10-13T13:37:36;16.20;99.90
22319;DHT22;11327;52.334;9.506;2022-10-13T13:40:57;16.10;99.90
22319;DHT22;11327;52.334;9.506;2022-10-13T13:44:18;16.20;99.90
22319;DHT22;11327;52.334;9.506;2022-10-13T13:47:39;16.20;99.90
22319;DHT22;11327;52.334;9.506;2022-10-13T13:51:00;16.20;99.90
22319;DHT22;11327;52.334;9.506;2022-10-13T13:54:21;16.30;99.90
22319;DHT22;11327;52.334;9.506;2022-10-13T13:57:42;16.30;99.90
22319;DHT22;11327;52.334;9.506;2022-10-13T14:01:03;16.40;99.90
22319;DHT22;11327;52.334;9.506;2022-10-13T14:04:24;16.30;99.90
22319;DHT22;11327;52.334;9.506;2022-10-13T14:07:46;16.40;99.90
22319;DHT22;11327;52.334;9.506;2022-10-13T14:11:07;16.40;99.90
22319;DHT22;11327;52.334;9.506;2022-10-13T14:14:31;16.70;99.90
22319;DHT22;11327;52.334;9.506;2022-10-13T14:17:53;16.90;99.90
22319;DHT22;11327;52.334;9.506;2022-10-13T14:21:14;17.00;99.90
22319;DHT22;11327;52.334;9.506;2022-10-13T14:24:35;17.20;99.90
22319;DHT22;11327;52.334;9.506;2022-10-13T14:27:56;17.20;99.90
22319;DHT22;11327;52.334;9.506;2022-10-13T14:31:17;17.10;99.90
22319;DHT22;11327;52.334;9.506;2022-10-13T14:34:38;17.00;99.90
22319;DHT22;11327;52.334;9.506;2022-10-13T14:37:59;16.90;99.90
22319;DHT22;11327;52.334;9.506;2022-10-13T14:41:20;16.90;99.90
22319;DHT22;11327;52.334;9.506;2022-10-13T14:44:41;16.80;99.90
22319;DHT22;11327;52.334;9.506;2022-10-13T14:48:02;16.80;99.90
22319;DHT22;11327;52.334;9.506;2022-10-13T14:51:23;16.80;99.90
22319;DHT22;11327;52.334;9.506;2022-10-13T14:54:44;16.70;99.90
22319;DHT22;11327;52.334;9.506;2022-10-13T14:58:05;16.80;99.90
22319;DHT22;11327;52.334;9.506;2022-10-13T15:01:26;16.80;99.90
22319;DHT22;11327;52.334;9.506;2022-10-13T15:04:47;16.90;99.90
22319;DHT22;11327;52.334;9.506;2022-10-13T15:08:08;16.90;99.90
22319;DHT22;11327;52.334;9.506;2022-10-13T15:11:29;16.80;99.90
22319;DHT22;11327;52.334;9.506;2022-10-13T15:14:50;16.70;99.90
22319;DHT22;11327;52.334;9.506;2022-10-13T15:18:11;16.60;99.90
22319;DHT22;11327;52.334;9.506;2022-10-13T15:21:32;16.40;99.90
22319;DHT22;11327;52.334;9.506;2022-10-13T15:24:53;16.40;99.90
22319;DHT22;11327;52.334;9.506;2022-10-13T15:28:14;16.30;99.90
22319;DHT22;11327;52.334;9.506;2022-10-13T15:31:35;16.20;99.90
22319;DHT22;11327;52.334;9.506;2022-10-13T15:34:56;16.10;99.90
22319;DHT22;11327;52.334;9.506;2022-10-13T15:38:18;16.10;99.90
22319;DHT22;11327;52.334;9.506;2022-10-13T15:41:39;16.00;99.90
22319;DHT22;11327;52.334;9.506;2022-10-13T15:45:01;15.90;99.90
22319;DHT22;11327;52.334;9.506;2022-10-13T15:48:22;15.80;99.90
22319;DHT22;11327;52.334;9.506;2022-10-13T15:51:43;15.70;99.90
22319;DHT22;11327;52.334;9.506;2022-10-13T15:55:05;15.70;99.90
22319;DHT22;11327;52.334;9.506;2022-10-13T15:58:26;15.70;99.90
22319;DHT22;11327;52.334;9.506;2022-10-13T16:01:47;15.60;99.90
22319;DHT22;11327;52.334;9.506;2022-10-13T16:05:10;15.50;99.90
22319;DHT22;11327;52.334;9.506;2022-10-13T16:08:34;15.50;99.90
22319;DHT22;11327;52.334;9.506;2022-10-13T16:11:55;15.40;99.90
22319;DHT22;11327;52.334;9.506;2022-10-13T16:15:17;15.30;99.90
22319;DHT22;11327;52.334;9.506;2022-10-13T16:18:38;15.30;99.90
22319;DHT22;11327;52.334;9.506;2022-10-13T16:22:00;15.20;99.90
22319;DHT22;11327;52.334;9.506;2022-10-13T16:25:21;15.20;99.90
22319;DHT22;11327;52.334;9.506;2022-10-13T16:28:42;15.00;99.90
22319;DHT22;11327;52.334;9.506;2022-10-13T16:32:03;15.00;99.90
22319;DHT22;11327;52.334;9.506;2022-10-13T16:35:24;15.00;99.90
22319;DHT22;11327;52.334;9.506;2022-10-13T16:38:45;14.90;99.90
22319;DHT22;11327;52.334;9.506;2022-10-13T16:42:07;14.90;99.90
22319;DHT22;11327;52.334;9.506;2022-10-13T16:45:28;14.90;99.90
22319;DHT22;11327;52.334;9.506;2022-10-13T16:48:49;14.90;99.90
22319;DHT22;11327;52.334;9.506;2022-10-13T16:52:10;14.90;99.90
22319;DHT22;11327;52.334;9.506;2022-10-13T16:55:31;14.80;99.90
22319;DHT22;11327;52.334;9.506;2022-10-13T16:58:58;14.80;99.90
22319;DHT22;11327;52.334;9.506;2022-10-13T17:02:19;14.80;99.90
22319;DHT22;11327;52.334;9.506;2022-10-13T17:05:40;14.70;99.90
22319;DHT22;11327;52.334;9.506;2022-10-13T17:09:01;14.60;99.90
22319;DHT22;11327;52.334;9.506;2022-10-13T17:12:23;14.50;99.90
22319;DHT22;11327;52.334;9.506;2022-10-13T17:15:49;14.40;99.90
22319;DHT22;11327;52.334;9.506;2022-10-13T17:19:10;14.40;99.90
22319;DHT22;11327;52.334;9.506;2022-10-13T17:22:32;14.30;99.90
22319;DHT22;11327;52.334;9.506;2022-10-13T17:25:54;14.40;99.90
22319;DHT22;11327;52.334;9.506;2022-10-13T17:29:15;14.50;99.90
22319;DHT22;11327;52.334;9.506;2022-10-13T17:32:37;14.60;99.90
22319;DHT22;11327;52.334;9.506;2022-10-13T17:36:04;14.70;99.90
22319;DHT22;11327;52.334;9.506;2022-10-13T17:39:25;14.80;99.90
22319;DHT22;11327;52.334;9.506;2022-10-13T17:42:46;14.70;99.90
22319;DHT22;11327;52.334;9.506;2022-10-13T17:46:14;14.70;99.90
22319;DHT22;11327;52.334;9.506;2022-10-13T17:49:32;14.60;99.90
22319;DHT22;11327;52.334;9.506;2022-10-13T17:52:53;14.70;99.90
22319;DHT22;11327;52.334;9.506;2022-10-13T17:56:22;14.70;99.90
22319;DHT22;11327;52.334;9.506;2022-10-13T17:59:44;14.60;99.90
22319;DHT22;11327;52.334;9.506;2022-10-13T18:03:05;14.50;99.90
22319;DHT22;11327;52.334;9.506;2022-10-13T18:06:31;14.50;99.90
22319;DHT22;11327;52.334;9.506;2022-10-13T18:10:04;14.40;99.90
22319;DHT22;11327;52.334;9.506;2022-10-13T18:13:25;14.40;99.90
22319;DHT22;11327;52.334;9.506;2022-10-13T18:16:46;14.40;99.90
22319;DHT22;11327;52.334;9.506;2022-10-13T18:20:09;14.30;99.90
22319;DHT22;11327;52.334;9.506;2022-10-13T18:23:34;14.20;99.90
22319;DHT22;11327;52.334;9.506;2022-10-13T18:26:55;14.20;99.90
22319;DHT22;11327;52.334;9.506;2022-10-13T18:30:16;14.10;99.90
22319;DHT22;11327;52.334;9.506;2022-10-13T18:33:38;14.10;99.90
22319;DHT22;11327;52.334;9.506;2022-10-13T18:36:59;14.10;99.90
22319;DHT22;11327;52.334;9.506;2022-10-13T18:40:19;14.00;99.90
22319;DHT22;11327;52.334;9.506;2022-10-13T18:43:40;14.00;99.90
22319;DHT22;11327;52.334;9.506;2022-10-13T18:47:01;13.90;99.90
22319;DHT22;11327;52.334;9.506;2022-10-13T18:50:22;13.90;99.90
22319;DHT22;11327;52.334;9.506;2022-10-13T18:53:46;13.90;99.90
22319;DHT22;11327;52.334;9.506;2022-10-13T18:57:07;13.80;99.90
22319;DHT22;11327;52.334;9.506;2022-10-13T19:00:28;13.80;99.90
22319;DHT22;11327;52.334;9.506;2022-10-13T19:03:50;13.80;99.90
22319;DHT22;11327;52.334;9.506;2022-10-13T19:07:11;13.70;99.90
22319;DHT22;11327;52.334;9.506;2022-10-13T19:10:32;13.70;99.90
22319;DHT22;11327;52.334;9.506;2022-10-13T19:13:54;13.70;99.90
22319;DHT22;11327;52.334;9.506;2022-10-13T19:17:14;13.70;99.90
22319;DHT22;11327;52.334;9.506;2022-10-13T19:20:35;13.70;99.90
22319;DHT22;11327;52.334;9.506;2022-10-13T19:24:00;13.70;99.90
22319;DHT22;11327;52.334;9.506;2022-10-13T19:27:21;13.70;99.90
22319;DHT22;11327;52.334;9.506;2022-10-13T19:30:42;13.70;99.90
22319;DHT22;11327;52.334;9.506;2022-10-13T19:34:03;13.60;99.90
22319;DHT22;11327;52.334;9.506;2022-10-13T19:37:24;13.70;99.90
22319;DHT22;11327;52.334;9.506;2022-10-13T19:40:47;13.60;99.90
22319;DHT22;11327;52.334;9.506;2022-10-13T19:44:09;13.60;99.90
22319;DHT22;11327;52.334;9.506;2022-10-13T19:47:30;13.60;99.90
22319;DHT22;11327;52.334;9.506;2022-10-13T19:50:51;13.60;99.90
22319;DHT22;11327;52.334;9.506;2022-10-13T19:54:13;13.50;99.90
22319;DHT22;11327;52.334;9.506;2022-10-13T19:57:34;13.50;99.90
22319;DHT22;11327;52.334;9.506;2022-10-13T20:01:05;13.50;99.90
22319;DHT22;11327;52.334;9.506;2022-10-13T20:04:22;13.40;99.90
22319;DHT22;11327;52.334;9.506;2022-10-13T20:07:43;13.40;99.90
22319;DHT22;11327;52.334;9.506;2022-10-13T20:11:11;13.40;99.90
22319;DHT22;11327;52.334;9.506;2022-10-13T20:14:29;13.40;99.90
22319;DHT22;11327;52.334;9.506;2022-10-13T20:17:50;13.40;99.90
22319;DHT22;11327;52.334;9.506;2022-10-13T20:21:11;13.40;99.90
22319;DHT22;11327;52.334;9.506;2022-10-13T20:24:32;13.30;99.90
22319;DHT22;11327;52.334;9.506;2022-10-13T20:27:53;13.30;99.90
22319;DHT22;11327;52.334;9.506;2022-10-13T20:31:16;13.30;99.90
22319;DHT22;11327;52.334;9.506;2022-10-13T20:34:38;13.30;99.90
22319;DHT22;11327;52.334;9.506;2022-10-13T20:37:58;13.30;99.90
22319;DHT22;11327;52.334;9.506;2022-10-13T20:41:22;13.30;99.90
22319;DHT22;11327;52.334;9.506;2022-10-13T20:44:46;13.20;99.90
22319;DHT22;11327;52.334;9.506;2022-10-13T20:48:07;13.20;99.90
22319;DHT22;11327;52.334;9.506;2022-10-13T20:51:28;13.20;99.90
22319;DHT22;11327;52.334;9.506;2022-10-13T20:54:49;13.20;99.90
22319;DHT22;11327;52.334;9.506;2022-10-13T20:58:10;13.20;99.90
22319;DHT22;11327;52.334;9.506;2022-10-13T21:01:31;13.20;99.90
22319;DHT22;11327;52.334;9.506;2022-10-13T21:04:52;13.10;99.90
22319;DHT22;11327;52.334;9.506;2022-10-13T21:08:13;13.10;99.90
22319;DHT22;11327;52.334;9.506;2022-10-13T21:11:35;13.10;99.90
22319;DHT22;11327;52.334;9.506;2022-10-13T21:14:56;13.10;99.90
22319;DHT22;11327;52.334;9.506;2022-10-13T21:18:17;13.00;99.90
22319;DHT22;11327;52.334;9.506;2022-10-13T21:21:38;13.00;99.90
22319;DHT22;11327;52.334;9.506;2022-10-13T21:24:59;13.00;99.90
22319;DHT22;11327;52.334;9.506;2022-10-13T21:28:20;13.00;99.90
22319;DHT22;11327;52.334;9.506;2022-10-13T21:31:41;12.90;99.90
22319;DHT22;11327;52.334;9.506;2022-10-13T21:35:02;12.90;99.90
22319;DHT22;11327;52.334;9.506;2022-10-13T21:38:22;12.90;99.90
22319;DHT22;11327;52.334;9.506;2022-10-13T21:41:43;12.90;99.90
22319;DHT22;11327;52.334;9.506;2022-10-13T21:45:05;12.90;99.90
22319;DHT22;11327;52.334;9.506;2022-10-13T21:48:26;12.90;99.90
22319;DHT22;11327;52.334;9.506;2022-10-13T21:51:47;12.90;99.90
22319;DHT22;11327;52.334;9.506;2022-10-13T21:55:08;13.00;99.90
22319;DHT22;11327;52.334;9.506;2022-10-13T21:58:29;13.10;99.90
22319;DHT22;11327;52.334;9.506;2022-10-13T22:01:50;13.20;99.90
22319;DHT22;11327;52.334;9.506;2022-10-13T22:05:11;13.20;99.90
22319;DHT22;11327;52.334;9.506;2022-10-13T22:08:34;13.20;99.90
22319;DHT22;11327;52.334;9.506;2022-10-13T22:11:55;13.20;99.90
22319;DHT22;11327;52.334;9.506;2022-10-13T22:15:16;13.20;99.90
22319;DHT22;11327;52.334;9.506;2022-10-13T22:18:37;13.10;99.90
22319;DHT22;11327;52.334;9.506;2022-10-13T22:21:58;13.10;99.90
22319;DHT22;11327;52.334;9.506;2022-10-13T22:25:19;13.10;99.90
22319;DHT22;11327;52.334;9.506;2022-10-13T22:28:40;13.10;99.90
22319;DHT22;11327;52.334;9.506;2022-10-13T22:32:02;13.10;99.90
22319;DHT22;11327;52.334;9.506;2022-10-13T22:35:23;13.10;99.90
22319;DHT22;11327;52.334;9.506;2022-10-13T22:38:46;13.10;99.90
22319;DHT22;11327;52.334;9.506;2022-10-13T22:42:07;13.00;99.90
22319;DHT22;11327;52.334;9.506;2022-10-13T22:45:28;13.00;99.90
22319;DHT22;11327;52.334;9.506;2022-10-13T22:48:49;13.00;99.90
22319;DHT22;11327;52.334;9.506;2022-10-13T22:52:10;12.90;99.90
22319;DHT22;11327;52.334;9.506;2022-10-13T22:55:32;12.90;99.90
22319;DHT22;11327;52.334;9.506;2022-10-13T22:58:55;12.90;99.90
22319;DHT22;11327;52.334;9.506;2022-10-13T23:02:17;12.90;99.90
22319;DHT22;11327;52.334;9.506;2022-10-13T23:05:40;13.00;99.90